Time;durP1;ratioP1;P1;durP2;ratioP2;P2;SDS_P1;SDS_P2;PMS_P1;PMS_P2;Temp;Humidity;BMP_temperature;BMP_pressure;BME280_temperature;BME280_humidity;BME280_pressure;Samples;Min_cycle;Max_cycle;Signal;HPM_P1;HPM_P2
2022/01/16 00:06:27;;;;;;;5.78;2.05;;;;;;;-0.12;91.53;99811.97;1746788;82;21208;-81
2022/01/16 00:09:34;;;;;;;5.42;2.20;;;;;;;-0.16;91.40;99813.17;1745388;82;21171;-76
2022/01/16 00:12:39;;;;;;;7.70;2.17;;;;;;;-0.21;91.25;99825.63;1746853;82;21283;-76
2022/01/16 00:15:45;;;;;;;4.58;2.08;;;;;;;-0.27;91.07;99824.28;1740412;82;21177;-77
2022/01/16 00:18:57;;;;;;;4.22;1.82;;;;;;;-0.31;90.87;99820.61;1735594;82;21282;-76
2022/01/16 00:21:59;;;;;;;5.03;1.90;;;;;;;-0.38;90.72;99811.30;1735535;82;21328;-82
2022/01/16 00:25:04;;;;;;;5.15;2.00;;;;;;;-0.44;90.65;99809.09;1735765;82;21261;-78
2022/01/16 00:28:09;;;;;;;5.70;2.00;;;;;;;-0.49;90.56;99822.88;1735707;82;21814;-82
2022/01/16 00:31:16;;;;;;;4.33;1.80;;;;;;;-0.53;90.56;99824.09;1735602;82;21288;-76
2022/01/16 00:34:21;;;;;;;3.77;2.00;;;;;;;-0.58;90.43;99826.27;1735730;82;21272;-78
2022/01/16 00:37:26;;;;;;;4.72;1.72;;;;;;;-0.60;90.35;99810.77;1735736;82;21200;-75
2022/01/16 00:40:31;;;;;;;3.80;2.08;;;;;;;-0.63;90.32;99813.68;1735541;82;21316;-81
2022/01/16 00:43:36;;;;;;;4.72;1.72;;;;;;;-0.65;90.20;99815.64;1735134;82;21283;-80
2022/01/16 00:46:42;;;;;;;5.70;1.67;;;;;;;-0.62;90.38;99834.19;1734757;82;21228;-81
2022/01/16 00:49:48;;;;;;;5.58;2.08;;;;;;;-0.57;90.33;99826.63;1735531;82;21162;-76
2022/01/16 00:52:54;;;;;;;2.62;1.55;;;;;;;-0.48;90.30;99827.77;1734076;82;21287;-81
2022/01/16 00:55:59;;;;;;;4.22;1.85;;;;;;;-0.40;90.22;99818.63;1735161;82;21307;-76
2022/01/16 00:59:04;;;;;;;4.33;1.90;;;;;;;-0.35;90.02;99819.98;1735504;82;21331;-81
2022/01/16 01:02:09;;;;;;;6.05;1.95;;;;;;;-0.31;89.69;99817.43;1735580;82;21709;-81
2022/01/16 01:05:16;;;;;;;3.67;1.90;;;;;;;-0.26;89.61;99813.05;1735509;82;21731;-81
2022/01/16 01:08:22;;;;;;;6.65;1.90;;;;;;;-0.21;89.32;99826.98;1735618;82;21209;-80
2022/01/16 01:11:30;;;;;;;7.15;1.95;;;;;;;-0.18;88.91;99842.88;1734106;82;21204;-81
2022/01/16 01:14:41;;;;;;;4.47;2.05;;;;;;;-0.17;88.48;99858.02;1735619;82;21897;-81
2022/01/16 01:17:47;;;;;;;5.17;1.82;;;;;;;-0.14;87.94;99866.32;1747663;82;21168;-81
2022/01/16 01:20:53;;;;;;;3.10;1.50;;;;;;;-0.12;87.34;99880.52;1749310;82;21224;-76
2022/01/16 01:23:58;;;;;;;5.50;2.15;;;;;;;-0.09;87.14;99920.13;1749368;82;21173;-78
2022/01/16 01:27:30;;;;;;;4.12;1.80;;;;;;;-0.08;87.00;99958.14;1749191;82;21224;-81
2022/01/16 01:30:10;;;;;;;4.10;2.27;;;;;;;-0.05;86.59;99983.91;1749114;82;21275;-81
2022/01/16 01:33:18;;;;;;;4.33;2.05;;;;;;;-0.05;85.77;100009.00;1749403;82;21220;-82
2022/01/16 01:36:23;;;;;;;6.53;2.05;;;;;;;0.00;85.37;99872.86;1749408;82;21849;-81
2022/01/16 01:39:29;;;;;;;10.53;2.33;;;;;;;0.00;84.53;99767.98;1749298;82;21148;-76
2022/01/16 01:42:42;;;;;;;4.05;2.12;;;;;;;-0.01;84.28;99771.63;1749256;82;21351;-82
2022/01/16 01:52:48;;;;;;;3.77;2.08;;;;;;;-0.03;83.74;99855.12;1749299;82;21287;-81
2022/01/16 01:55:53;;;;;;;5.00;2.05;;;;;;;-0.02;83.93;99877.48;1749384;82;21307;-81
2022/01/16 01:59:00;;;;;;;4.37;2.52;;;;;;;-0.03;83.77;99840.33;1728265;82;21259;-81
2022/01/16 02:02:04;;;;;;;5.83;3.00;;;;;;;-0.03;83.36;99832.75;1749216;82;21306;-80
2022/01/16 02:05:09;;;;;;;7.37;3.95;;;;;;;-0.04;82.95;99883.48;1749217;82;21816;-81
2022/01/16 02:08:14;;;;;;;9.85;5.35;;;;;;;-0.06;82.51;99890.79;1749307;82;21286;-81
2022/01/16 02:11:23;;;;;;;6.60;4.28;;;;;;;-0.06;82.15;99868.79;1749291;82;21884;-79
2022/01/16 02:14:33;;;;;;;9.13;4.93;;;;;;;-0.07;81.79;99867.58;1747969;82;21160;-82
2022/01/16 02:31:24;;;;;;;5.65;1.52;;;;;;;-0.10;78.50;99925.11;1706031;82;21302;-81
2022/01/16 02:34:43;;;;;;;2.47;1.05;;;;;;;-0.06;77.16;99939.19;1742300;82;21338;-76
2022/01/16 02:37:51;;;;;;;2.72;1.40;;;;;;;0.01;76.95;99947.16;1743562;82;21327;-80
2022/01/16 02:41:03;;;;;;;1.52;1.30;;;;;;;0.04;77.19;99951.44;1743377;82;21303;-81
2022/01/16 02:47:27;;;;;;;4.33;1.90;;;;;;;0.08;77.60;99954.27;1743880;82;21306;-81
2022/01/16 02:50:34;;;;;;;3.92;2.00;;;;;;;0.09;77.80;99947.90;1742966;82;21393;-79
2022/01/16 02:53:39;;;;;;;7.10;3.08;;;;;;;0.09;77.87;99956.82;1743663;82;21188;-75
2022/01/16 02:56:45;;;;;;;6.60;3.35;;;;;;;0.10;78.09;99981.42;1743767;82;21331;-75
2022/01/16 02:59:56;;;;;;;9.05;3.20;;;;;;;0.11;78.33;99983.13;1767606;81;21273;-76
2022/01/16 03:03:01;;;;;;;9.48;3.87;;;;;;;0.13;78.89;99991.92;1767588;81;21304;-78
2022/01/16 03:06:06;;;;;;;7.67;3.65;;;;;;;0.16;79.52;99993.05;1767582;81;21300;-80
2022/01/16 03:09:12;;;;;;;5.97;3.47;;;;;;;0.17;80.21;99996.09;1767526;81;21325;-76
2022/01/16 03:12:17;;;;;;;8.48;3.72;;;;;;;0.11;80.92;99995.23;1767489;81;21361;-80
2022/01/16 03:15:24;;;;;;;5.75;3.02;;;;;;;0.08;81.55;100008.91;1767534;81;21282;-80
2022/01/16 03:21:54;;;;;;;7.20;3.77;;;;;;;0.05;82.45;99994.83;1746280;82;21367;-80
2022/01/16 03:24:59;;;;;;;6.03;3.67;;;;;;;0.01;82.88;100002.30;1746500;82;21781;-80
2022/01/16 03:28:04;;;;;;;5.80;3.58;;;;;;;-0.02;83.38;100014.61;1746255;82;21279;-80
2022/01/16 03:31:09;;;;;;;8.43;3.65;;;;;;;-0.03;83.89;100014.25;1746463;82;21303;-76
2022/01/16 03:34:15;;;;;;;6.65;3.83;;;;;;;-0.04;84.39;100007.17;1746379;82;21189;-80
2022/01/16 03:37:20;;;;;;;7.97;4.08;;;;;;;-0.07;84.73;100012.77;1746367;82;21758;-76
2022/01/16 03:40:27;;;;;;;9.25;3.47;;;;;;;-0.08;85.07;100020.47;1746324;82;21275;-76
2022/01/16 03:43:32;;;;;;;5.90;2.50;;;;;;;-0.09;85.32;100022.30;1746319;82;21275;-76
2022/01/16 03:46:38;;;;;;;2.55;1.80;;;;;;;-0.08;85.56;100020.47;1746366;82;21817;-76
2022/01/16 03:49:43;;;;;;;4.72;1.77;;;;;;;-0.10;85.61;100027.28;1746437;82;21275;-80
2022/01/16 03:52:48;;;;;;;3.40;1.80;;;;;;;-0.10;85.67;100031.80;1746321;82;21279;-76
2022/01/16 03:55:55;;;;;;;4.67;1.87;;;;;;;-0.12;85.45;100033.77;1745058;80;21825;-79
2022/01/16 03:59:01;;;;;;;2.47;1.30;;;;;;;-0.11;85.23;100026.06;1746309;82;21212;-80
2022/01/16 04:02:06;;;;;;;4.10;1.77;;;;;;;-0.10;84.92;100031.31;1746305;82;21278;-76
2022/01/16 04:05:12;;;;;;;2.42;1.55;;;;;;;-0.08;84.85;100025.84;1746264;82;21331;-81
2022/01/16 04:08:18;;;;;;;2.27;1.40;;;;;;;-0.08;84.89;100021.81;1746316;82;21802;-80
2022/01/16 04:11:24;;;;;;;3.15;1.60;;;;;;;-0.06;85.00;100022.54;1744768;81;21726;-81
2022/01/16 04:17:50;;;;;;;1.98;1.40;;;;;;;-0.06;85.38;100030.11;1753548;81;21289;-81
2022/01/16 04:20:57;;;;;;;3.10;1.47;;;;;;;-0.05;85.43;100029.63;1770618;81;21277;-75
2022/01/16 04:24:02;;;;;;;4.20;1.70;;;;;;;-0.05;85.46;100030.52;1771994;81;21937;-76
2022/01/16 04:27:06;;;;;;;2.40;1.60;;;;;;;-0.08;85.55;100043.32;1771873;81;21319;-76
2022/01/16 04:30:13;;;;;;;3.50;1.95;;;;;;;-0.10;85.70;100038.03;1772078;81;21273;-76
2022/01/16 04:33:12;;;;;;;3.22;1.82;;;;;;;-0.10;85.73;100053.31;1756113;81;21311;-80
2022/01/16 04:36:16;;;;;;;5.05;1.55;;;;;;;-0.12;85.80;100053.93;1735043;82;21288;-76
2022/01/16 04:39:29;;;;;;;3.85;2.47;;;;;;;-0.11;85.83;100056.98;1735521;82;21165;-77
2022/01/16 04:45:52;;;;;;;2.55;1.80;;;;;;;-0.10;85.50;100074.82;1735271;82;21315;-76
2022/01/16 04:48:56;;;;;;;3.25;2.02;;;;;;;-0.09;85.56;100073.39;1735584;82;21838;-76
2022/01/16 04:52:02;;;;;;;5.33;1.82;;;;;;;-0.09;85.51;100090.86;1735483;82;21307;-81
2022/01/16 04:55:07;;;;;;;5.60;2.10;;;;;;;-0.10;85.47;100091.81;1735581;82;21300;-80
2022/01/16 04:58:12;;;;;;;6.33;2.37;;;;;;;-0.07;85.55;100096.97;1735568;82;21285;-81
2022/01/16 05:01:18;;;;;;;3.65;1.70;;;;;;;-0.05;85.45;100097.73;1735609;82;21355;-76
2022/01/16 05:04:24;;;;;;;3.47;1.60;;;;;;;-0.04;85.26;100099.94;1736915;81;21761;-76
2022/01/16 05:07:29;;;;;;;3.50;1.62;;;;;;;0.00;85.22;100104.11;1746202;82;21323;-81
2022/01/16 05:10:34;;;;;;;3.02;1.62;;;;;;;0.00;85.16;100106.80;1746233;82;21370;-76
2022/01/16 05:16:45;;;;;;;4.50;1.55;;;;;;;0.05;85.28;100110.47;1745520;82;21813;-81
2022/01/16 05:19:50;;;;;;;4.17;1.62;;;;;;;0.05;85.37;100117.19;1747358;81;21778;-76
2022/01/16 05:22:56;;;;;;;2.47;1.72;;;;;;;0.01;85.51;100117.92;1746282;82;21779;-82
2022/01/16 05:26:01;;;;;;;3.20;1.52;;;;;;;0.01;85.71;100125.99;1746046;82;21312;-76
2022/01/16 05:29:07;;;;;;;4.45;2.17;;;;;;;-0.03;85.85;100143.32;1746372;82;21271;-81
2022/01/16 05:32:16;;;;;;;2.95;1.57;;;;;;;-0.06;86.07;100142.19;1746315;82;21196;-81
2022/01/16 05:35:19;;;;;;;5.05;1.92;;;;;;;-0.05;86.22;100143.45;1746374;82;21306;-76
2022/01/16 05:38:25;;;;;;;4.72;2.00;;;;;;;-0.05;86.28;100146.13;1746460;82;21271;-79
2022/01/16 05:41:29;;;;;;;4.20;1.87;;;;;;;-0.07;86.38;100149.89;1746369;82;21841;-81
2022/01/16 05:44:33;;;;;;;2.15;1.60;;;;;;;-0.05;86.53;100141.21;1746253;82;21792;-81
2022/01/16 05:47:38;;;;;;;7.30;1.95;;;;;;;-0.04;86.54;100133.55;1746225;82;21299;-76
2022/01/16 05:50:43;;;;;;;3.70;1.95;;;;;;;-0.05;86.58;100143.91;1744882;82;21844;-76
2022/01/16 05:53:51;;;;;;;5.33;2.08;;;;;;;-0.06;86.63;100140.84;1746151;82;21330;-82
2022/01/16 05:56:48;;;;;;;;;;;;;;;-0.05;86.70;100149.28;1747970;82;21314;-81
2022/01/16 05:59:55;;;;;;;3.67;1.60;;;;;;;-0.02;86.59;100150.41;1756496;81;20249;-76
2022/01/16 06:03:00;;;;;;;3.83;2.12;;;;;;;-0.04;86.60;100151.02;1770631;81;21840;-77
2022/01/16 06:06:05;;;;;;;2.35;1.65;;;;;;;-0.06;86.74;100152.95;1771626;81;21774;-81
2022/01/16 06:09:11;;;;;;;2.50;1.37;;;;;;;-0.03;86.73;100150.05;1772001;81;21268;-81
2022/01/16 06:12:17;;;;;;;3.77;2.00;;;;;;;-0.02;86.65;100154.45;1770920;81;21638;-76
2022/01/16 06:15:21;;;;;;;5.58;1.87;;;;;;;0.04;86.59;100159.85;1747556;81;21272;-81
2022/01/16 06:18:27;;;;;;;6.08;1.98;;;;;;;0.07;86.50;100159.64;1735365;82;21260;-76
2022/01/16 06:21:32;;;;;;;2.33;1.42;;;;;;;0.08;86.58;100160.00;1739555;82;21295;-77
2022/01/16 06:24:37;;;;;;;7.33;1.80;;;;;;;0.08;86.60;100162.20;1749318;82;21314;-79
2022/01/16 06:27:43;;;;;;;3.42;1.77;;;;;;;0.10;86.59;100175.07;1749214;82;21279;-76
2022/01/16 06:30:47;;;;;;;7.45;2.40;;;;;;;0.11;86.54;100165.17;1780309;80;21858;-76
2022/01/16 06:33:54;;;;;;;3.35;1.75;;;;;;;0.18;86.44;100171.80;1785802;80;21165;-77
2022/01/16 06:37:00;;;;;;;4.25;2.10;;;;;;;0.17;86.26;100179.50;1785896;80;21172;-76
2022/01/16 06:40:05;;;;;;;3.47;1.75;;;;;;;0.17;86.23;100183.05;1785919;80;21308;-76
2022/01/16 06:43:10;;;;;;;3.35;1.80;;;;;;;0.18;86.16;100190.63;1785677;80;21133;-82
2022/01/16 06:46:15;;;;;;;9.65;1.72;;;;;;;0.20;86.15;100193.59;1785848;80;21208;-77
2022/01/16 06:49:20;;;;;;;3.05;1.50;;;;;;;0.27;85.96;100194.47;1785883;80;21189;-78
2022/01/16 06:52:18;;;;;;;3.27;1.50;;;;;;;0.29;85.69;100204.16;1785790;80;21220;-76
2022/01/16 06:55:12;;;;;;;4.12;1.90;;;;;;;0.30;85.62;100209.05;1785879;80;21137;-81
2022/01/16 06:58:16;;;;;;;4.30;2.10;;;;;;;0.30;85.51;100214.44;1786116;80;21176;-76
2022/01/16 07:01:21;;;;;;;2.58;1.65;;;;;;;0.34;85.51;100215.93;1785828;80;21173;-81
2022/01/16 07:04:28;;;;;;;4.15;1.70;;;;;;;0.36;85.45;100216.17;1785889;80;21180;-82
2022/01/16 07:07:33;;;;;;;6.45;1.90;;;;;;;0.41;85.19;100222.56;1785885;80;21200;-76
2022/01/16 07:10:39;;;;;;;4.37;1.95;;;;;;;0.46;84.83;100225.77;1785803;80;21189;-76
2022/01/16 07:13:45;;;;;;;6.12;2.02;;;;;;;0.48;84.81;100231.42;1785863;80;21152;-77
2022/01/16 07:16:50;;;;;;;3.27;1.52;;;;;;;0.51;84.84;100234.35;1785842;80;21296;-81
2022/01/16 07:19:55;;;;;;;5.50;1.80;;;;;;;0.57;84.50;100231.72;1785813;80;21836;-81
2022/01/16 07:23:01;;;;;;;4.45;1.60;;;;;;;0.59;84.25;100230.61;1784818;80;21303;-76
2022/01/16 07:26:06;;;;;;;4.45;1.90;;;;;;;0.59;83.79;100229.76;1785913;80;21295;-77
2022/01/16 07:29:11;;;;;;;4.37;1.87;;;;;;;0.61;83.88;100231.83;1785898;80;21148;-77
2022/01/16 07:32:17;;;;;;;5.00;1.82;;;;;;;0.65;83.61;100242.75;1784694;80;21818;-81
2022/01/16 07:35:23;;;;;;;4.00;1.55;;;;;;;0.66;83.33;100247.16;1785814;80;21192;-81
2022/01/16 07:38:22;;;;;;;3.98;2.05;;;;;;;0.71;83.37;100259.32;1785004;80;21157;-82
2022/01/16 07:41:28;;;;;;;8.98;2.12;;;;;;;0.74;83.07;100265.80;1785101;80;21208;-82
2022/01/16 07:44:33;;;;;;;4.90;1.87;;;;;;;0.80;82.80;100256.89;1785876;80;21761;-81
2022/01/16 07:47:38;;;;;;;4.12;1.90;;;;;;;0.87;82.64;100260.86;1784141;80;21323;-82
2022/01/16 07:50:44;;;;;;;3.95;1.90;;;;;;;0.92;82.12;100250.10;1785274;80;21149;-82
2022/01/16 07:53:49;;;;;;;4.33;1.90;;;;;;;0.97;81.68;100265.91;1785877;80;21276;-77
2022/01/16 07:56:54;;;;;;;4.97;1.80;;;;;;;1.00;81.38;100262.50;1785908;80;21342;-81
2022/01/16 07:59:59;;;;;;;3.27;1.60;;;;;;;1.04;80.64;100265.84;1785839;80;21153;-79
2022/01/16 08:03:04;;;;;;;2.83;1.47;;;;;;;1.11;80.53;100261.68;1785943;80;21295;-77
2022/01/16 08:06:10;;;;;;;4.05;1.80;;;;;;;1.16;79.68;100262.19;1785644;80;21268;-77
2022/01/16 08:09:16;;;;;;;3.65;1.90;;;;;;;1.18;79.34;100275.07;1785411;80;21259;-77
2022/01/16 08:12:23;;;;;;;3.22;1.80;;;;;;;1.21;79.29;100280.20;1784444;80;21283;-75
2022/01/16 08:15:27;;;;;;;5.25;1.75;;;;;;;1.20;79.18;100287.92;1784245;80;21268;-80
2022/01/16 08:18:33;;;;;;;4.58;1.85;;;;;;;1.19;79.60;100294.78;1784228;80;21299;-81
2022/01/16 08:21:39;;;;;;;3.65;1.95;;;;;;;1.20;79.71;100300.05;1784821;80;21307;-76
2022/01/16 08:24:45;;;;;;;5.33;2.22;;;;;;;1.24;80.15;100308.27;1775042;80;21332;-78
2022/01/16 08:27:50;;;;;;;5.90;2.40;;;;;;;1.27;80.04;100310.75;1770535;81;21169;-77
2022/01/16 08:30:56;;;;;;;4.65;2.27;;;;;;;1.31;79.65;100302.41;1770506;81;21295;-82
2022/01/16 08:34:02;;;;;;;8.40;4.55;;;;;;;1.32;80.14;100310.86;1772064;81;21303;-81
2022/01/16 08:37:07;;;;;;;8.50;3.42;;;;;;;1.32;80.03;100320.28;1771730;81;21285;-77
2022/01/16 08:40:14;;;;;;;4.78;2.67;;;;;;;1.30;79.66;100316.86;1772123;81;21359;-76
2022/01/16 08:43:18;;;;;;;3.42;1.52;;;;;;;1.30;79.92;100324.95;1772086;81;21122;-77
2022/01/16 08:46:24;;;;;;;5.85;1.70;;;;;;;1.35;79.39;100333.05;1772230;81;21319;-82
2022/01/16 08:49:29;;;;;;;4.95;1.60;;;;;;;1.42;76.92;100329.41;1772170;81;21201;-77
2022/01/16 08:52:36;;;;;;;4.90;2.10;;;;;;;1.50;76.52;100325.13;1772127;81;21162;-82
2022/01/16 08:55:42;;;;;;;3.90;1.87;;;;;;;1.54;75.29;100332.50;1772190;81;21299;-77
2022/01/16 08:58:47;;;;;;;2.83;1.52;;;;;;;1.53;74.56;100328.09;1772278;81;21862;-78
2022/01/16 09:01:53;;;;;;;4.30;1.90;;;;;;;1.52;75.12;100335.81;1772117;81;21323;-77
2022/01/16 09:04:59;;;;;;;5.37;2.05;;;;;;;1.49;74.79;100334.69;1772189;81;21827;-78
2022/01/16 09:08:04;;;;;;;2.90;1.62;;;;;;;1.49;74.24;100335.55;1772264;81;21884;-76
2022/01/16 09:11:09;;;;;;;3.85;2.12;;;;;;;1.50;74.37;100339.95;1772213;81;21292;-76
2022/01/16 09:14:14;;;;;;;3.95;1.77;;;;;;;1.51;74.65;100328.71;1772001;81;21272;-76
2022/01/16 09:17:20;;;;;;;5.12;1.95;;;;;;;1.52;74.63;100331.77;1770323;81;21197;-83
2022/01/16 09:20:25;;;;;;;5.55;1.55;;;;;;;1.58;74.83;100325.89;1770600;81;21176;-80
2022/01/16 09:23:31;;;;;;;5.15;1.70;;;;;;;1.64;74.45;100320.52;1770685;81;21315;-82
2022/01/16 09:26:36;;;;;;;4.90;2.05;;;;;;;1.69;74.88;100324.56;1783394;80;21271;-82
2022/01/16 09:29:41;;;;;;;3.98;1.80;;;;;;;1.75;74.20;100322.76;1785168;80;21268;-82
2022/01/16 09:32:48;;;;;;;3.72;1.50;;;;;;;1.82;74.32;100318.23;1785387;80;21256;-78
2022/01/16 09:35:54;;;;;;;4.12;1.72;;;;;;;1.84;74.07;100316.28;1784339;80;21308;-81
2022/01/16 09:38:59;;;;;;;5.97;1.80;;;;;;;1.81;73.69;100315.16;1785758;80;21184;-81
2022/01/16 09:42:08;;;;;;;2.92;1.37;;;;;;;1.85;73.92;100321.55;1784643;80;21318;-77
2022/01/16 09:45:16;;;;;;;2.58;1.50;;;;;;;1.90;73.02;100322.05;1784250;80;21208;-82
2022/01/16 09:48:21;;;;;;;3.95;1.60;;;;;;;1.92;73.12;100332.20;1785898;80;21307;-77
2022/01/16 09:51:26;;;;;;;4.72;1.72;;;;;;;1.95;72.17;100327.08;1785103;80;21319;-78
2022/01/16 09:54:32;;;;;;;5.10;1.95;;;;;;;1.98;73.05;100323.66;1785645;80;21153;-82
2022/01/16 09:57:38;;;;;;;4.60;1.60;;;;;;;2.04;72.49;100323.66;1784292;80;21188;-81
2022/01/16 10:00:43;;;;;;;1.92;1.10;;;;;;;2.07;71.56;100323.42;1783797;80;21187;-77
2022/01/16 10:03:53;;;;;;;2.45;1.40;;;;;;;2.05;71.76;100314.08;1749222;82;21148;-81
2022/01/16 10:07:06;;;;;;;3.42;1.67;;;;;;;2.06;71.83;100309.54;1749232;82;21306;-81
2022/01/16 10:10:18;;;;;;;3.37;1.77;;;;;;;2.05;71.45;100305.13;1749133;82;21269;-80
2022/01/16 10:13:41;;;;;;;4.75;1.98;;;;;;;2.05;72.32;100310.52;1749152;82;21161;-82
2022/01/16 10:16:43;;;;;;;5.87;1.90;;;;;;;2.07;72.51;100291.05;1749059;80;21204;-76
2022/01/16 10:19:49;;;;;;;4.55;1.82;;;;;;;2.10;71.74;100300.22;1749324;82;21850;-77
2022/01/16 10:23:06;;;;;;;7.20;1.90;;;;;;;2.13;72.16;100304.53;1749304;82;21307;-81
2022/01/16 10:26:11;;;;;;;3.90;1.82;;;;;;;2.15;71.74;100299.36;1744442;82;21288;-77
2022/01/16 10:29:16;;;;;;;5.35;1.57;;;;;;;2.13;72.88;100302.69;1735501;82;21264;-82
2022/01/16 10:32:34;;;;;;;3.67;1.45;;;;;;;2.01;74.94;100307.70;1716169;81;21319;-76
2022/01/16 10:35:39;;;;;;;3.72;1.87;;;;;;;1.84;77.17;100316.28;1777638;79;21188;-82
2022/01/16 10:38:44;;;;;;;5.65;1.72;;;;;;;1.58;79.96;100322.34;1735501;81;21172;-82
2022/01/16 10:41:50;;;;;;;5.45;1.77;;;;;;;1.41;81.30;100308.80;1776699;79;21171;-77
2022/01/16 10:45:01;;;;;;;5.90;1.60;;;;;;;1.34;82.25;100303.53;1777643;81;21286;-76
2022/01/16 10:48:08;;;;;;;6.50;1.72;;;;;;;1.36;82.37;100313.69;1777683;81;21270;-80
2022/01/16 10:51:33;;;;;;;4.47;2.08;;;;;;;1.46;82.68;100312.03;1776172;79;21188;-76
2022/01/16 10:54:43;;;;;;;6.87;2.20;;;;;;;1.61;80.69;100306.80;1776591;81;21307;-81
2022/01/16 10:57:48;;;;;;;7.00;1.60;;;;;;;1.76;80.31;100305.59;1767157;81;21295;-76
2022/01/16 11:01:05;;;;;;;7.15;1.80;;;;;;;1.82;78.61;100296.65;1768538;79;21330;-81
2022/01/16 11:04:11;;;;;;;3.92;1.87;;;;;;;1.76;78.35;100314.17;1745930;82;21149;-77
2022/01/16 11:07:17;;;;;;;3.58;1.35;;;;;;;1.76;78.87;100295.30;1744932;82;21196;-76
2022/01/16 11:10:36;;;;;;;4.55;1.75;;;;;;;1.71;78.85;100297.01;1744456;81;21164;-77
2022/01/16 11:13:42;;;;;;;2.90;1.50;;;;;;;1.74;78.68;100310.27;1746246;82;22222;-82
2022/01/16 11:16:47;;;;;;;7.70;1.52;;;;;;;1.78;79.21;100320.30;1745731;81;21245;-76
2022/01/16 11:19:52;;;;;;;5.87;1.95;;;;;;;1.79;78.08;100317.50;1745973;82;21278;-80
2022/01/16 11:23:06;;;;;;;3.27;1.30;;;;;;;1.86;78.15;100307.57;1746105;82;21314;-82
2022/01/16 11:26:13;;;;;;;2.55;1.40;;;;;;;1.89;77.45;100301.45;1744943;82;21306;-76
2022/01/16 11:29:20;;;;;;;5.87;1.80;;;;;;;1.92;77.34;100317.87;1746207;82;21279;-81
2022/01/16 11:32:26;;;;;;;7.30;1.70;;;;;;;1.96;77.72;100304.02;1737122;81;21319;-76
2022/01/16 11:35:32;;;;;;;3.83;1.50;;;;;;;2.02;78.12;100295.92;1735366;82;21208;-82
2022/01/16 11:38:39;;;;;;;11.35;1.90;;;;;;;2.09;77.37;100301.20;1735473;82;21276;-81
2022/01/16 11:41:59;;;;;;;3.70;1.72;;;;;;;2.17;76.58;100285.77;1719475;82;21307;-77
2022/01/16 11:45:03;;;;;;;3.42;1.47;;;;;;;2.24;76.12;100301.33;1735485;82;21310;-82
2022/01/16 11:48:09;;;;;;;4.25;1.52;;;;;;;2.22;74.52;100293.86;1734064;82;21209;-77
2022/01/16 11:51:49;;;;;;;4.65;1.50;;;;;;;2.23;74.39;100294.71;1735559;82;21320;-77
2022/01/16 11:54:58;;;;;;;3.50;1.45;;;;;;;2.21;73.63;100297.55;1746413;81;21154;-82
2022/01/16 11:58:06;;;;;;;6.12;1.32;;;;;;;2.15;72.98;100308.80;1740104;82;21170;-82
2022/01/16 12:01:15;;;;;;;5.45;1.60;;;;;;;2.01;74.15;100305.00;1757716;81;21284;-82
2022/01/16 12:04:44;;;;;;;3.00;1.67;;;;;;;1.96;74.80;100305.36;1762381;81;21182;-76
2022/01/16 12:07:49;;;;;;;3.67;1.95;;;;;;;1.93;74.24;100311.48;1770396;81;21268;-77
2022/01/16 12:10:58;;;;;;;4.22;1.87;;;;;;;1.79;77.17;100318.84;1769370;81;21305;-77
2022/01/16 12:14:03;;;;;;;4.47;1.60;;;;;;;1.66;79.38;100318.57;1770395;81;21754;-77
2022/01/16 12:17:11;;;;;;;4.83;2.02;;;;;;;1.61;78.96;100325.67;1772119;79;21803;-78
2022/01/16 12:20:26;;;;;;;4.85;2.05;;;;;;;1.50;79.14;100317.53;1770818;81;21819;-77
2022/01/16 12:23:36;;;;;;;2.90;1.75;;;;;;;1.49;79.49;100333.34;1769806;81;21312;-82
2022/01/16 12:26:42;;;;;;;3.05;1.65;;;;;;;1.49;79.37;100327.45;1768850;81;21284;-82
2022/01/16 12:30:28;;;;;;;4.15;2.10;;;;;;;1.52;79.49;100329.08;1780333;80;21197;-82
2022/01/16 12:33:46;;;;;;;4.78;2.08;;;;;;;1.48;79.07;100324.40;1783363;80;21268;-82
2022/01/16 12:36:52;;;;;;;4.97;2.35;;;;;;;1.45;79.53;100331.86;1782476;80;21924;-82
2022/01/16 12:39:57;;;;;;;6.10;2.25;;;;;;;1.46;79.83;100329.55;1782358;80;21276;-78
2022/01/16 12:43:04;;;;;;;4.78;2.50;;;;;;;1.47;79.75;100324.03;1782309;80;21312;-76
2022/01/16 12:46:10;;;;;;;6.17;2.95;;;;;;;1.51;79.90;100326.88;1782373;80;21291;-76
2022/01/16 12:49:27;;;;;;;7.45;3.15;;;;;;;1.57;79.78;100333.62;1784303;80;21273;-80
2022/01/16 12:52:32;;;;;;;9.48;3.75;;;;;;;1.63;79.92;100339.02;1784211;80;21176;-81
2022/01/16 12:55:39;;;;;;;8.15;3.00;;;;;;;1.68;79.17;100330.09;1784164;80;21268;-76
2022/01/16 12:58:44;;;;;;;7.03;3.40;;;;;;;1.74;77.07;100341.27;1784343;80;21830;-79
2022/01/16 13:02:07;;;;;;;6.90;3.10;;;;;;;1.83;76.33;100344.20;1782653;80;21165;-77
2022/01/16 13:05:13;;;;;;;6.85;2.50;;;;;;;1.91;76.82;100355.27;1784349;80;21200;-76
2022/01/16 13:08:19;;;;;;;7.17;2.87;;;;;;;2.04;75.90;100343.89;1784026;80;21319;-81
2022/01/16 13:11:25;;;;;;;4.58;2.45;;;;;;;2.06;72.19;100343.27;1783318;80;21312;-81
2022/01/16 13:14:27;;;;;;;7.55;2.70;;;;;;;2.01;71.91;100353.56;1783965;80;21277;-82
2022/01/16 13:17:32;;;;;;;6.25;2.95;;;;;;;1.98;72.56;100361.42;1784025;80;21809;-81
2022/01/16 13:20:38;;;;;;;10.05;3.05;;;;;;;1.87;72.89;100369.97;1784314;80;21290;-77
2022/01/16 13:23:43;;;;;;;6.50;2.77;;;;;;;1.85;73.91;100370.09;1784280;80;21339;-79
2022/01/16 13:26:48;;;;;;;5.65;3.00;;;;;;;1.79;73.35;100365.19;1784325;80;21679;-81
2022/01/16 13:30:03;;;;;;;13.48;3.30;;;;;;;1.68;73.97;100372.73;1767080;80;21292;-77
2022/01/16 13:33:12;;;;;;;4.75;2.92;;;;;;;1.60;74.32;100377.88;1780821;80;21158;-81
2022/01/16 13:36:18;;;;;;;6.73;2.90;;;;;;;1.50;74.61;100382.23;1781220;80;21185;-82
2022/01/16 13:39:23;;;;;;;8.03;2.75;;;;;;;1.37;75.05;100397.15;1780853;80;21256;-81
2022/01/16 13:45:54;;;;;;;9.20;3.17;;;;;;;1.17;75.79;100401.31;1781004;80;21284;-77
2022/01/16 13:48:59;;;;;;;9.35;3.25;;;;;;;1.10;75.96;100397.86;1780847;80;21221;-81
2022/01/16 13:52:09;;;;;;;9.50;3.37;;;;;;;1.06;76.24;100397.70;1764424;80;21296;-77
2022/01/16 13:55:16;;;;;;;9.83;3.65;;;;;;;1.05;76.34;100403.58;1779371;80;21204;-81
2022/01/16 13:58:24;;;;;;;5.50;2.83;;;;;;;1.04;76.46;100393.79;1780887;80;21264;-81
2022/01/16 14:01:36;;;;;;;8.13;3.67;;;;;;;1.03;76.38;100402.82;1780930;80;21296;-82
2022/01/16 14:04:46;;;;;;;10.65;3.15;;;;;;;1.00;76.52;100396.33;1780933;80;21723;-81
2022/01/16 14:07:52;;;;;;;10.15;3.30;;;;;;;0.93;76.88;100397.25;1780955;80;21332;-78
2022/01/16 14:10:56;;;;;;;5.22;2.92;;;;;;;0.90;77.22;100395.30;1780953;80;21299;-76
2022/01/16 14:14:08;;;;;;;9.35;3.35;;;;;;;0.85;77.41;100392.05;1780918;80;21265;-76
2022/01/16 14:20:46;;;;;;;8.48;3.50;;;;;;;0.68;77.72;100388.77;1780959;80;21260;-76
2022/01/16 14:23:31;;;;;;;7.58;2.95;;;;;;;0.56;78.25;100386.95;1781025;80;21185;-78
2022/01/16 14:26:36;;;;;;;5.62;2.92;;;;;;;0.48;78.63;100392.05;1780988;80;21303;-81
2022/01/16 14:29:44;;;;;;;12.90;3.37;;;;;;;0.42;79.05;100396.50;1780656;80;21813;-76
2022/01/16 14:32:50;;;;;;;8.53;3.37;;;;;;;0.35;79.62;100397.92;1783052;80;21279;-81
2022/01/16 14:35:55;;;;;;;7.15;3.95;;;;;;;0.23;79.97;100396.45;1779331;80;21176;-76
2022/01/16 14:39:01;;;;;;;9.70;3.55;;;;;;;0.17;80.50;100407.66;1780338;80;21721;-75
2022/01/16 14:42:06;;;;;;;8.53;3.47;;;;;;;0.10;80.97;100403.70;1779051;80;21213;-82
2022/01/16 14:45:12;;;;;;;9.95;3.67;;;;;;;0.06;81.24;100408.05;1778780;80;21718;-81
2022/01/16 14:48:17;;;;;;;9.38;3.33;;;;;;;0.03;81.55;100402.38;1780331;80;21181;-77
2022/01/16 14:51:22;;;;;;;10.63;3.55;;;;;;;0.02;81.98;100392.60;1780214;80;21825;-76
2022/01/16 14:54:28;;;;;;;8.15;3.55;;;;;;;0.02;82.54;100394.44;1780496;80;21307;-81
2022/01/16 14:57:33;;;;;;;6.80;3.00;;;;;;;0.05;82.68;100393.75;1780342;80;21272;-76
2022/01/16 15:00:38;;;;;;;8.45;3.25;;;;;;;0.09;82.51;100392.53;1780197;80;21217;-76
2022/01/16 15:03:43;;;;;;;7.33;2.92;;;;;;;0.07;82.39;100385.06;1780354;80;21798;-81
2022/01/16 15:06:51;;;;;;;16.10;3.77;;;;;;;0.07;82.13;100394.48;1780273;80;21319;-81
2022/01/16 15:10:01;;;;;;;9.38;4.47;;;;;;;0.07;81.90;100397.17;1688129;85;21193;-76
2022/01/16 15:13:05;;;;;;;8.05;3.72;;;;;;;0.09;82.12;100398.41;1635240;88;21299;-81
2022/01/16 15:16:14;;;;;;;9.78;3.70;;;;;;;0.11;82.30;100395.99;1634789;88;21248;-77
2022/01/16 15:19:19;;;;;;;10.45;3.17;;;;;;;0.15;82.41;100408.27;1659166;86;21353;-80
2022/01/16 15:22:25;;;;;;;11.50;5.10;;;;;;;0.17;82.54;100407.66;1659050;86;21931;-81
2022/01/16 15:25:32;;;;;;;7.60;3.40;;;;;;;0.21;82.59;100413.69;1659093;86;21388;-76